Главная страница
METAR-TAF:

METAR-TAF

Аэропорты :

Костанай, Казахстан

широта: 53-12-23N, долгота: 063-33-03E, высота над уровнем моря: 182 м

Текущие метеонаблюдения

Эта сводка был подготовлена 33 минут назад, в 06:00 UTC
Ветер 8 Узел от восточно-юго-восточный
Температура -5°C
Влажность 68%
Давление 1029 hPa
Видимость 10 км и более
Нет облачности ниже 1500 м, и нет кучево-дождевой облачности

METAR: UAUU 190600Z 11004MPS CAVOK M05/M10 Q1029 R15/CLRD60 NOSIG RMK QFE755/1007

Время: 12:33 (06:33 UTC)

Прогноз

Эта сводка был подготовлена 1 час и 33 минут назад, в 05:00 UTC
Прогноз действительный с 19-го 06 UTC до 19-го 15 UTC
Ветер 6 Узел от восточный
Видимость 10 км и более
Отдельные облака на высоте 1100 фута

TAF: UAUU 190500Z 1906/1915 08003MPS 9999 SCT011

Метеонаблюдения и прогнозы для более 4000 аэропортов (сводки METAR и TAF).

Имеющиеся станции представлены на карте желтыми и красными точками.

Чтобы увидеть название станции, наведите на нее мышь.

Затем щелкните, чтобы увидеть метеонаблюдения и метеопрогнозы.

Управление картой: чтобы увеличить масштаб, щелкните зеленые кнопки с черным крестиком; чтобы уменьшить масштаб, щелкните зеленую кнопку с тире; для просмотра соседних карт щелкайте зеленые стрелки.


METAR-TAF: